createdAt,value
2018-09-28T00:01:02.667Z,6.20
2018-09-28T00:03:05.834Z,5.63
2018-09-28T00:05:08.992Z,6.60
2018-09-28T00:07:12.124Z,6.07
2018-09-28T00:09:15.240Z,6.40
2018-09-28T00:11:18.323Z,6.03
2018-09-28T00:13:23.163Z,5.47
2018-09-28T00:15:26.321Z,5.70
2018-09-28T00:17:29.422Z,5.90
2018-09-28T00:19:32.489Z,6.20
2018-09-28T00:21:35.919Z,5.90
2018-09-28T00:23:38.964Z,4.70
2018-09-28T00:25:42.042Z,5.77
2018-09-28T00:27:45.186Z,5.60
2018-09-28T00:29:48.244Z,5.97
2018-09-28T00:31:53.129Z,5.57
2018-09-28T00:33:56.188Z,5.60
2018-09-28T00:35:59.385Z,5.17
2018-09-28T00:38:02.548Z,5.90
2018-09-28T00:40:05.683Z,5.30
2018-09-28T00:42:08.843Z,5.37
2018-09-28T00:44:11.912Z,5.30
2018-09-28T00:46:14.974Z,6.07
2018-09-28T00:48:18.106Z,5.40
2018-09-28T00:50:22.625Z,4.87
2018-09-28T00:52:25.711Z,4.87
2018-09-28T00:54:29.183Z,5.17
2018-09-28T00:56:32.269Z,4.47
2018-09-28T00:58:35.349Z,4.40
2018-09-28T01:00:38.711Z,4.97
2018-09-28T01:02:41.784Z,4.70
2018-09-28T01:04:44.819Z,4.60
2018-09-28T01:06:47.921Z,5.27
2018-09-28T01:08:52.048Z,4.80
2018-09-28T01:10:55.108Z,4.43
2018-09-28T01:12:58.351Z,4.30
2018-09-28T01:15:01.419Z,4.50
2018-09-28T01:17:04.500Z,4.00
2018-09-28T01:19:08.000Z,4.30
2018-09-28T01:21:11.081Z,4.27
2018-09-28T01:23:14.112Z,3.60
2018-09-28T01:25:17.222Z,4.80
2018-09-28T01:27:20.307Z,3.97
2018-09-28T01:29:24.565Z,4.13
2018-09-28T01:31:27.666Z,4.17
2018-09-28T01:33:30.695Z,4.60
2018-09-28T01:35:33.837Z,3.93
2018-09-28T01:37:36.961Z,4.07
2018-09-28T01:39:40.050Z,4.30
2018-09-28T01:41:43.119Z,4.70
2018-09-28T01:43:46.286Z,4.67
2018-09-28T01:45:49.335Z,4.60
2018-09-28T01:47:54.085Z,4.70
2018-09-28T01:49:57.187Z,4.30
2018-09-28T01:52:00.231Z,4.43
2018-09-28T01:54:03.389Z,3.80
2018-09-28T01:56:06.625Z,4.13
2018-09-28T01:58:09.677Z,4.43
2018-09-28T02:00:12.848Z,4.20
2018-09-28T02:02:15.888Z,4.00
2018-09-28T02:04:18.980Z,4.83
2018-09-28T02:06:24.304Z,4.57
2018-09-28T02:08:27.336Z,4.40
2018-09-28T02:10:30.443Z,5.00
2018-09-28T02:12:33.623Z,4.63
2018-09-28T02:14:36.643Z,5.03
2018-09-28T02:16:39.715Z,4.50
2018-09-28T02:18:42.803Z,4.60
2018-09-28T02:20:45.911Z,4.57
2018-09-28T02:22:48.979Z,4.27
2018-09-28T02:24:53.983Z,4.63
2018-09-28T02:26:57.068Z,5.00
2018-09-28T02:29:00.231Z,4.60
2018-09-28T02:31:03.324Z,4.40
2018-09-28T02:33:06.382Z,5.87
2018-09-28T02:35:09.418Z,4.80
2018-09-28T02:37:12.406Z,5.20
2018-09-28T02:39:15.397Z,4.23
2018-09-28T02:41:18.641Z,5.63
2018-09-28T02:43:23.343Z,4.53
2018-09-28T02:45:26.337Z,5.20
2018-09-28T02:47:29.371Z,5.30
2018-09-28T02:49:32.379Z,5.63
2018-09-28T02:51:35.691Z,5.10
2018-09-28T02:53:38.641Z,5.03
2018-09-28T02:55:41.615Z,5.63
2018-09-28T02:57:44.610Z,4.53
2018-09-28T02:59:47.560Z,5.47
2018-09-28T03:01:51.777Z,4.97
2018-09-28T03:03:54.850Z,5.07
2018-09-28T03:05:57.850Z,5.70
2018-09-28T03:08:00.839Z,5.30
2018-09-28T03:10:04.018Z,5.53
2018-09-28T03:12:07.068Z,6.30
2018-09-28T03:14:10.105Z,5.47
2018-09-28T03:16:13.106Z,5.33
2018-09-28T03:18:17.074Z,5.87
2018-09-28T03:20:20.382Z,6.00
2018-09-28T03:22:23.430Z,5.80
2018-09-28T03:24:26.878Z,6.40
2018-09-28T03:26:29.888Z,6.00
2018-09-28T03:28:32.851Z,6.03
2018-09-28T03:30:35.882Z,5.53
2018-09-28T03:32:38.987Z,6.27
2018-09-28T03:34:42.001Z,6.23
2018-09-28T03:36:45.041Z,6.40
2018-09-28T03:38:48.078Z,5.63
2018-09-28T03:40:52.521Z,7.13
2018-09-28T03:42:55.943Z,7.13
2018-09-28T03:44:58.977Z,6.63
2018-09-28T03:47:02.241Z,6.90
2018-09-28T03:49:05.539Z,6.53
2018-09-28T03:51:08.525Z,6.17
2018-09-28T03:53:11.559Z,6.50
2018-09-28T03:55:14.622Z,7.03
2018-09-28T03:57:17.633Z,8.23
2018-09-28T03:59:22.281Z,8.10
2018-09-28T04:01:25.439Z,8.50
2018-09-28T04:03:28.402Z,7.33
2018-09-28T04:05:31.411Z,7.50
2018-09-28T04:07:35.239Z,8.30
2018-09-28T04:09:38.202Z,7.97
2018-09-28T04:11:41.191Z,7.33
2018-09-28T04:13:44.265Z,7.70
2018-09-28T04:15:47.214Z,8.37
2018-09-28T04:17:50.239Z,7.97
2018-09-28T04:19:54.675Z,6.83
2018-09-28T04:21:59.925Z,7.47
2018-09-28T04:24:02.885Z,7.10
2018-09-28T04:26:05.920Z,7.90
2018-09-28T04:28:08.914Z,7.97
2018-09-28T04:30:11.886Z,7.77
2018-09-28T04:32:14.939Z,7.80
2018-09-28T04:34:18.259Z,8.90
2018-09-28T04:36:22.723Z,8.43
2018-09-28T04:38:25.768Z,9.30
2018-09-28T04:40:29.169Z,9.10
2018-09-28T04:42:32.139Z,10.30
2018-09-28T04:44:35.182Z,9.47
2018-09-28T04:46:38.303Z,9.93
2018-09-28T04:48:41.380Z,9.43
2018-09-28T04:50:44.379Z,10.67
2018-09-28T04:52:47.387Z,12.17
2018-09-28T04:54:50.374Z,11.37
2018-09-28T04:56:53.369Z,11.63
2018-09-28T04:58:56.434Z,10.67
2018-09-28T05:00:59.442Z,11.93
2018-09-28T05:03:02.464Z,10.43
2018-09-28T05:05:05.767Z,11.87
2018-09-28T05:07:08.871Z,11.63
2018-09-28T05:09:13.281Z,10.90
2018-09-28T05:11:16.302Z,11.20
2018-09-28T05:13:19.308Z,10.70
2018-09-28T05:15:23.983Z,11.63
2018-09-28T05:17:27.005Z,11.70
2018-09-28T05:19:30.116Z,11.53
2018-09-28T05:21:33.151Z,10.47
2018-09-28T05:23:36.125Z,11.10
2018-09-28T05:25:39.175Z,10.53
2018-09-28T05:27:42.151Z,10.90
2018-09-28T05:29:45.157Z,12.57
2018-09-28T05:31:48.210Z,11.80
2018-09-28T05:33:52.890Z,10.93
2018-09-28T05:35:55.907Z,12.60
2018-09-28T05:37:58.894Z,12.13
2018-09-28T05:40:01.965Z,12.27
2018-09-28T05:42:05.050Z,11.83
2018-09-28T05:44:08.058Z,12.80
2018-09-28T05:46:11.132Z,12.30
2018-09-28T05:48:14.131Z,12.67
2018-09-28T05:50:17.091Z,13.60
2018-09-28T05:52:20.097Z,14.90
2018-09-28T05:54:24.290Z,13.60
2018-09-28T05:56:27.327Z,12.23
2018-09-28T05:58:36.205Z,13.03
2018-09-28T06:00:45.145Z,13.00
2018-09-28T06:02:53.942Z,13.93
2018-09-28T06:05:02.739Z,14.73
2018-09-28T06:07:06.005Z,13.47
2018-09-28T06:09:10.378Z,15.03
2018-09-28T06:11:13.459Z,13.63
2018-09-28T06:13:17.738Z,15.10
2018-09-28T06:15:22.155Z,13.70
2018-09-28T06:17:25.175Z,13.80
2018-09-28T06:19:28.203Z,15.20
2018-09-28T06:21:31.228Z,13.07
2018-09-28T06:23:34.363Z,15.80
2018-09-28T06:25:37.365Z,13.70
2018-09-28T06:27:40.510Z,13.60
2018-09-28T06:29:43.577Z,14.27
2018-09-28T06:31:46.566Z,15.00
2018-09-28T06:33:49.548Z,13.43
2018-09-28T06:35:54.091Z,13.90
2018-09-28T06:37:57.150Z,12.97
2018-09-28T06:40:00.583Z,13.63
2018-09-28T06:42:03.650Z,14.03
2018-09-28T06:44:06.635Z,13.37
2018-09-28T06:46:10.098Z,13.30
2018-09-28T06:48:14.434Z,13.53
2018-09-28T06:50:17.522Z,13.07
2018-09-28T06:52:22.567Z,12.93
2018-09-28T06:54:25.581Z,13.93
2018-09-28T06:56:28.586Z,13.20
2018-09-28T06:58:31.685Z,12.50
2018-09-28T07:00:34.735Z,11.50
2018-09-28T07:02:38.066Z,12.30
2018-09-28T07:04:41.521Z,11.67
2018-09-28T07:06:44.595Z,12.67
2018-09-28T07:08:47.603Z,11.40
2018-09-28T07:10:52.402Z,11.97
2018-09-28T07:12:55.433Z,11.40
2018-09-28T07:14:58.490Z,11.13
2018-09-28T07:17:01.548Z,11.60
2018-09-28T07:19:04.956Z,11.47
2018-09-28T07:21:08.014Z,11.20
2018-09-28T07:23:11.467Z,12.27
2018-09-28T07:25:14.559Z,11.63
2018-09-28T07:27:17.575Z,10.90
2018-09-28T07:29:22.751Z,13.30
2018-09-28T07:31:25.849Z,10.97
2018-09-28T07:33:28.881Z,9.37
2018-09-28T07:35:31.923Z,9.77
2018-09-28T07:37:35.005Z,8.87
2018-09-28T07:39:38.053Z,8.70
2018-09-28T07:41:41.220Z,7.67
2018-09-28T07:43:44.228Z,8.03
2018-09-28T07:45:47.255Z,7.00
2018-09-28T07:47:50.505Z,6.50
2018-09-28T07:49:54.910Z,6.17
2018-09-28T07:51:57.885Z,6.00
2018-09-28T07:54:00.945Z,5.70
2018-09-28T07:56:03.920Z,6.80
2018-09-28T07:58:06.957Z,4.60
2018-09-28T08:00:10.301Z,3.83
2018-09-28T08:02:13.277Z,3.97
2018-09-28T08:04:16.260Z,3.70
2018-09-28T08:06:19.271Z,2.80
2018-09-28T08:08:23.409Z,3.00
2018-09-28T08:10:26.422Z,2.77
2018-09-28T08:12:29.482Z,2.77
2018-09-28T08:14:32.447Z,1.67
2018-09-28T08:16:35.516Z,2.30
2018-09-28T08:18:38.698Z,2.00
2018-09-28T08:20:41.663Z,2.67
2018-09-28T08:22:44.658Z,2.00
2018-09-28T08:24:47.769Z,2.30
2018-09-28T08:26:52.411Z,1.73
2018-09-28T08:28:55.369Z,2.27
2018-09-28T08:30:58.385Z,1.50
2018-09-28T08:33:01.395Z,2.03
2018-09-28T08:35:04.488Z,1.73
2018-09-28T08:37:07.524Z,2.30
2018-09-28T08:39:10.511Z,1.70
2018-09-28T08:41:13.542Z,2.37
2018-09-28T08:43:16.510Z,2.23
2018-09-28T08:45:19.563Z,1.73
2018-09-28T08:47:23.728Z,2.37
2018-09-28T08:49:26.739Z,2.13
2018-09-28T08:51:29.763Z,1.50
2018-09-28T08:53:32.790Z,1.53
2018-09-28T08:55:35.785Z,1.87
2018-09-28T08:57:38.784Z,1.73
2018-09-28T08:59:41.803Z,1.17
2018-09-28T09:01:44.803Z,1.23
2018-09-28T09:03:47.839Z,2.03
2018-09-28T09:05:52.610Z,1.50
2018-09-28T09:07:55.617Z,1.37
2018-09-28T09:09:58.656Z,1.40
2018-09-28T09:12:01.626Z,1.70
2018-09-28T09:14:04.655Z,1.43
2018-09-28T09:16:07.866Z,1.40
2018-09-28T09:18:11.052Z,2.80
2018-09-28T09:20:13.916Z,1.70
2018-09-28T09:22:16.903Z,1.60
2018-09-28T09:24:19.917Z,2.00
2018-09-28T09:26:24.687Z,2.00
2018-09-28T09:28:28.015Z,1.60
2018-09-28T09:30:31.039Z,1.57
2018-09-28T09:32:34.042Z,2.87
2018-09-28T09:34:37.048Z,1.63
2018-09-28T09:36:40.104Z,1.43
2018-09-28T09:38:43.104Z,2.03
2018-09-28T09:40:46.174Z,1.60
2018-09-28T09:42:49.170Z,1.90
2018-09-28T09:44:53.566Z,1.80
2018-09-28T09:46:56.647Z,1.60
2018-09-28T09:48:59.644Z,1.57
2018-09-28T09:51:02.675Z,1.20
2018-09-28T09:53:07.004Z,1.87
2018-09-28T09:55:10.034Z,1.83
2018-09-28T09:57:13.418Z,1.90
2018-09-28T09:59:16.429Z,2.83
2018-09-28T10:01:25.111Z,2.07
2018-09-28T10:03:34.019Z,2.10
2018-09-28T10:05:37.404Z,1.83
2018-09-28T10:07:40.671Z,2.20
2018-09-28T10:09:43.796Z,3.00
2018-09-28T10:11:46.822Z,2.10
2018-09-28T10:13:49.971Z,2.03
2018-09-28T10:15:54.668Z,1.60
2018-09-28T10:17:57.686Z,1.70
2018-09-28T10:20:00.730Z,1.50
2018-09-28T10:22:03.812Z,1.20
2018-09-28T10:24:06.917Z,2.00
2018-09-28T10:26:10.167Z,1.70
2018-09-28T10:28:13.233Z,2.00
2018-09-28T10:30:16.215Z,2.00
2018-09-28T10:32:19.254Z,2.30
2018-09-28T10:34:24.045Z,2.40
2018-09-28T10:36:26.961Z,2.93
2018-09-28T10:38:30.009Z,2.37
2018-09-28T10:40:33.094Z,1.97
2018-09-28T10:42:36.695Z,2.33
2018-09-28T10:44:39.757Z,2.73
2018-09-28T10:46:42.877Z,2.77
2018-09-28T10:48:46.405Z,2.37
2018-09-28T10:50:52.177Z,2.70
2018-09-28T10:52:56.081Z,2.60
2018-09-28T10:54:59.192Z,2.83
2018-09-28T10:57:02.213Z,2.40
2018-09-28T10:59:05.568Z,2.30
2018-09-28T11:01:08.944Z,2.20
2018-09-28T11:03:11.972Z,2.80
2018-09-28T11:05:14.893Z,2.07
2018-09-28T11:07:17.921Z,2.00
2018-09-28T11:09:22.045Z,2.50
2018-09-28T11:11:25.063Z,2.13
2018-09-28T11:13:28.425Z,1.90
2018-09-28T11:15:31.480Z,2.03
2018-09-28T11:17:34.472Z,2.73
2018-09-28T11:19:37.514Z,2.13
2018-09-28T11:21:40.571Z,1.83
2018-09-28T11:23:43.726Z,2.40
2018-09-28T11:25:46.769Z,2.03
2018-09-28T11:27:49.931Z,2.47
2018-09-28T11:29:54.216Z,2.53
2018-09-28T11:31:57.269Z,2.53
2018-09-28T11:34:00.340Z,2.10
2018-09-28T11:36:03.360Z,3.00
2018-09-28T11:38:06.372Z,1.60
2018-09-28T11:40:09.438Z,2.00
2018-09-28T11:42:12.724Z,1.73
2018-09-28T11:44:15.849Z,2.70
2018-09-28T11:46:18.829Z,1.67
2018-09-28T11:48:23.930Z,1.83
2018-09-28T11:50:26.969Z,2.20
2018-09-28T11:52:30.021Z,1.50
2018-09-28T11:54:33.383Z,1.70
2018-09-28T11:56:36.372Z,2.30
2018-09-28T11:58:39.385Z,2.20
2018-09-28T12:00:42.702Z,1.80
2018-09-28T12:02:45.704Z,1.70
2018-09-28T12:04:48.713Z,1.47
2018-09-28T12:06:53.432Z,1.93
2018-09-28T12:08:56.371Z,2.37
2018-09-28T12:10:59.384Z,1.93
2018-09-28T12:13:02.413Z,2.17
2018-09-28T12:15:05.517Z,2.30
2018-09-28T12:17:08.509Z,1.47
2018-09-28T12:19:11.479Z,2.47
2018-09-28T12:21:14.476Z,2.30
2018-09-28T12:23:17.539Z,2.37
2018-09-28T12:25:20.516Z,2.10
2018-09-28T12:27:24.825Z,2.07
2018-09-28T12:29:27.940Z,1.90
2018-09-28T12:31:30.950Z,1.70
2018-09-28T12:33:34.124Z,2.67
2018-09-28T12:35:37.137Z,1.60
2018-09-28T12:37:40.156Z,1.70
2018-09-28T12:39:43.323Z,1.43
2018-09-28T12:41:46.250Z,1.60
2018-09-28T12:43:49.230Z,1.67
2018-09-28T12:45:53.924Z,1.40
2018-09-28T12:47:57.006Z,1.90
2018-09-28T12:50:00.036Z,1.80
2018-09-28T12:52:03.125Z,1.73
2018-09-28T12:54:06.262Z,1.43
2018-09-28T12:56:09.293Z,1.40
2018-09-28T12:58:12.348Z,3.10
2018-09-28T13:00:15.412Z,1.40
2018-09-28T13:02:18.453Z,1.90
2018-09-28T13:04:23.171Z,2.00
2018-09-28T13:06:26.264Z,2.40
2018-09-28T13:08:29.357Z,1.70
2018-09-28T13:10:32.707Z,1.97
2018-09-28T13:12:35.769Z,2.03
2018-09-28T13:14:38.889Z,1.97
2018-09-28T13:16:41.895Z,2.47
2018-09-28T13:18:44.926Z,1.90
2018-09-28T13:20:48.014Z,2.43
2018-09-28T13:22:52.554Z,1.50
2018-09-28T13:24:55.567Z,2.37
2018-09-28T13:26:58.701Z,2.13
2018-09-28T13:29:01.811Z,2.13
2018-09-28T13:31:04.919Z,1.70
2018-09-28T13:33:07.885Z,2.10
2018-09-28T13:35:10.909Z,1.60
2018-09-28T13:37:13.956Z,1.30
2018-09-28T13:39:16.982Z,1.13
2018-09-28T13:41:19.993Z,1.83
2018-09-28T13:43:24.572Z,2.30
2018-09-28T13:45:27.649Z,1.20
2018-09-28T13:47:30.601Z,1.83
2018-09-28T13:49:33.618Z,1.50
2018-09-28T13:51:36.663Z,1.83
2018-09-28T13:53:39.652Z,1.60
2018-09-28T13:55:42.949Z,2.83
2018-09-28T13:57:45.956Z,1.60
2018-09-28T13:59:48.940Z,1.50
2018-09-28T14:01:53.168Z,1.50
2018-09-28T14:03:56.178Z,1.80
2018-09-28T14:05:59.204Z,1.67
2018-09-28T14:08:02.585Z,1.10
2018-09-28T14:10:05.622Z,1.70
2018-09-28T14:12:08.752Z,1.63
2018-09-28T14:14:12.075Z,2.30
2018-09-28T14:16:15.165Z,1.17
2018-09-28T14:18:18.233Z,1.63
2018-09-28T14:20:22.858Z,1.43
2018-09-28T14:22:25.979Z,1.37
2018-09-28T14:24:28.936Z,1.47
2018-09-28T14:26:32.172Z,1.57
2018-09-28T14:28:35.292Z,1.77
2018-09-28T14:30:38.228Z,1.57
2018-09-28T14:32:41.331Z,1.53
2018-09-28T14:34:44.449Z,2.23
2018-09-28T14:36:47.457Z,2.00
2018-09-28T14:38:50.421Z,1.40
2018-09-28T14:40:53.469Z,1.37
2018-09-28T14:42:56.488Z,1.10
2018-09-28T14:44:59.582Z,1.80
2018-09-28T14:47:02.573Z,1.67
2018-09-28T14:49:05.723Z,1.53
2018-09-28T14:51:08.745Z,2.30
2018-09-28T14:53:11.723Z,1.43
2018-09-28T14:55:14.765Z,2.37
2018-09-28T14:57:17.975Z,1.77
2018-09-28T14:59:22.089Z,2.40
2018-09-28T15:01:25.282Z,1.30
2018-09-28T15:03:28.130Z,1.90
2018-09-28T15:05:31.137Z,1.87
2018-09-28T15:07:34.157Z,1.77
2018-09-28T15:09:37.220Z,1.67
2018-09-28T15:11:40.333Z,1.67
2018-09-28T15:13:43.458Z,1.47
2018-09-28T15:15:46.468Z,1.30
2018-09-28T15:17:49.495Z,1.50
2018-09-28T15:19:53.851Z,1.30
2018-09-28T15:21:56.820Z,1.60
2018-09-28T15:23:59.850Z,1.60
2018-09-28T15:26:02.857Z,1.53
2018-09-28T15:28:05.841Z,1.57
2018-09-28T15:30:08.993Z,1.37
2018-09-28T15:32:12.005Z,1.27
2018-09-28T15:34:14.995Z,1.10
2018-09-28T15:36:18.063Z,1.60
2018-09-28T15:38:22.636Z,1.87
2018-09-28T15:40:25.630Z,1.30
2018-09-28T15:42:28.961Z,1.43
2018-09-28T15:44:31.986Z,1.53
2018-09-28T15:46:34.992Z,0.93
2018-09-28T15:48:38.128Z,1.20
2018-09-28T15:50:41.233Z,2.50
2018-09-28T15:52:44.264Z,1.40
2018-09-28T15:54:47.355Z,1.60
2018-09-28T15:56:50.394Z,1.33
2018-09-28T15:58:55.020Z,1.70
2018-09-28T16:00:58.064Z,1.30
2018-09-28T16:03:01.080Z,2.90
2018-09-28T16:05:04.279Z,1.47
2018-09-28T16:07:07.576Z,1.67
2018-09-28T16:09:10.580Z,1.30
2018-09-28T16:11:14.491Z,2.03
2018-09-28T16:13:17.532Z,1.80
2018-09-28T16:15:20.497Z,1.13
2018-09-28T16:17:25.386Z,1.30
2018-09-28T16:19:28.414Z,1.60
2018-09-28T16:21:31.409Z,1.47
2018-09-28T16:23:34.483Z,1.60
2018-09-28T16:25:37.436Z,3.43
2018-09-28T16:27:40.404Z,1.67
2018-09-28T16:29:43.420Z,1.00
2018-09-28T16:31:46.404Z,1.40
2018-09-28T16:33:49.443Z,1.40
2018-09-28T16:35:53.772Z,1.40
2018-09-28T16:37:56.796Z,1.53
2018-09-28T16:39:59.834Z,2.40
2018-09-28T16:42:02.840Z,1.67
2018-09-28T16:44:06.172Z,1.47
2018-09-28T16:46:09.547Z,1.10
2018-09-28T16:48:12.578Z,1.27
2018-09-28T16:50:15.578Z,1.53
2018-09-28T16:52:18.606Z,1.40
2018-09-28T16:54:23.172Z,2.00
2018-09-28T16:56:26.267Z,5.37
2018-09-28T16:58:29.315Z,2.97
2018-09-28T17:00:32.269Z,3.10
2018-09-28T17:02:35.285Z,3.53
2018-09-28T17:04:38.306Z,5.50
2018-09-28T17:06:41.706Z,4.60
2018-09-28T17:08:44.731Z,2.83
2018-09-28T17:10:47.711Z,2.00
2018-09-28T17:12:52.667Z,1.80
2018-09-28T17:14:55.702Z,3.30
2018-09-28T17:16:58.681Z,2.63
2018-09-28T17:19:01.853Z,2.13
2018-09-28T17:21:04.841Z,2.27
2018-09-28T17:23:07.855Z,2.60
2018-09-28T17:25:10.893Z,2.20
2018-09-28T17:27:13.927Z,3.10
2018-09-28T17:29:16.933Z,2.17
2018-09-28T17:31:19.964Z,1.80
2018-09-28T17:33:24.241Z,1.90
2018-09-28T17:35:27.271Z,2.30
2018-09-28T17:37:30.296Z,1.93
2018-09-28T17:39:33.325Z,3.60
2018-09-28T17:41:36.696Z,3.70
2018-09-28T17:43:39.696Z,4.60
2018-09-28T17:45:42.710Z,6.60
2018-09-28T17:47:45.740Z,6.73
2018-09-28T17:49:48.732Z,6.77
2018-09-28T17:51:53.496Z,6.30
2018-09-28T17:53:56.544Z,7.23
2018-09-28T17:55:59.592Z,4.90
2018-09-28T17:58:02.577Z,4.50
2018-09-28T18:00:05.972Z,4.23
2018-09-28T18:02:08.992Z,3.80
2018-09-28T18:04:11.984Z,3.37
2018-09-28T18:06:15.017Z,3.23
2018-09-28T18:08:18.047Z,2.60
2018-09-28T18:10:22.842Z,3.30
2018-09-28T18:12:25.861Z,2.57
2018-09-28T18:14:28.865Z,2.20
2018-09-28T18:16:31.932Z,2.77
2018-09-28T18:18:34.974Z,2.60
2018-09-28T18:20:37.957Z,2.40
2018-09-28T18:22:41.080Z,2.73
2018-09-28T18:24:44.440Z,1.67
2018-09-28T18:26:47.416Z,1.30
2018-09-28T18:28:50.436Z,1.80
2018-09-28T18:30:53.593Z,1.60
2018-09-28T18:32:56.640Z,1.90
2018-09-28T18:34:59.668Z,2.40
2018-09-28T18:37:02.790Z,1.80
2018-09-28T18:39:08.165Z,1.70
2018-09-28T18:41:11.194Z,1.70
2018-09-28T18:43:14.222Z,3.70
2018-09-28T18:45:17.267Z,1.70
2018-09-28T18:47:20.250Z,1.80
2018-09-28T18:49:24.827Z,1.43
2018-09-28T18:51:28.201Z,1.43
2018-09-28T18:53:31.254Z,1.93
2018-09-28T18:55:34.252Z,1.90
2018-09-28T18:57:37.329Z,2.00
2018-09-28T18:59:40.473Z,2.77
2018-09-28T19:01:43.428Z,1.90
2018-09-28T19:03:46.511Z,2.03
2018-09-28T19:05:49.547Z,1.90
2018-09-28T19:07:53.641Z,1.87
2018-09-28T19:09:56.641Z,2.83
2018-09-28T19:11:59.617Z,2.70
2018-09-28T19:14:02.634Z,3.57
2018-09-28T19:16:05.717Z,2.80
2018-09-28T19:18:08.961Z,3.40
2018-09-28T19:20:11.974Z,2.87
2018-09-28T19:22:14.976Z,2.80
2018-09-28T19:24:18.026Z,2.47
2018-09-28T19:26:22.819Z,1.90
2018-09-28T19:28:25.861Z,2.50
2018-09-28T19:30:28.884Z,2.10
2018-09-28T19:32:31.931Z,2.10
2018-09-28T19:34:34.948Z,2.00
2018-09-28T19:36:37.944Z,3.10
2018-09-28T19:38:40.997Z,4.47
2018-09-28T19:40:43.998Z,2.40
2018-09-28T19:42:46.972Z,1.60
2018-09-28T19:44:49.980Z,2.03
2018-09-28T19:46:54.900Z,2.27
2018-09-28T19:48:57.880Z,3.63
2018-09-28T19:51:00.881Z,2.53
2018-09-28T19:53:03.893Z,2.57
2018-09-28T19:55:07.030Z,2.50
2018-09-28T19:57:10.126Z,2.33
2018-09-28T19:59:13.433Z,2.10
2018-09-28T20:01:16.477Z,2.73
2018-09-28T20:03:19.582Z,1.97
2018-09-28T20:05:23.976Z,2.13
2018-09-28T20:07:26.992Z,1.27
2018-09-28T20:09:30.024Z,1.93
2018-09-28T20:11:33.061Z,1.63
2018-09-28T20:13:36.092Z,1.77
2018-09-28T20:15:39.163Z,1.70
2018-09-28T20:17:42.286Z,1.53
2018-09-28T20:19:45.285Z,2.00
2018-09-28T20:21:48.267Z,2.90
2018-09-28T20:23:53.013Z,3.07
2018-09-28T20:25:56.176Z,2.40
2018-09-28T20:27:59.130Z,2.90
2018-09-28T20:30:02.202Z,2.30
2018-09-28T20:32:05.550Z,3.73
2018-09-28T20:34:08.533Z,2.90
2018-09-28T20:36:11.560Z,2.40
2018-09-28T20:38:14.712Z,1.77
2018-09-28T20:40:17.754Z,1.70
2018-09-28T20:42:22.722Z,1.37
2018-09-28T20:44:25.773Z,1.50
2018-09-28T20:46:28.807Z,1.80
2018-09-28T20:48:31.789Z,2.03
2018-09-28T20:50:34.775Z,2.47
2018-09-28T20:52:37.847Z,2.70
2018-09-28T20:54:41.162Z,1.50
2018-09-28T20:56:44.208Z,1.50
2018-09-28T20:58:47.326Z,1.87
2018-09-28T21:00:50.381Z,2.87
2018-09-28T21:02:54.458Z,2.50
2018-09-28T21:04:57.752Z,2.73
2018-09-28T21:07:00.780Z,2.63
2018-09-28T21:09:06.459Z,1.90
2018-09-28T21:11:09.467Z,2.50
2018-09-28T21:13:12.537Z,1.70
2018-09-28T21:15:15.595Z,2.20
2018-09-28T21:17:18.627Z,1.90
2018-09-28T21:19:23.053Z,1.80
2018-09-28T21:21:26.065Z,1.90
2018-09-28T21:23:29.096Z,1.57
2018-09-28T21:25:32.078Z,1.77
2018-09-28T21:27:35.097Z,1.90
2018-09-28T21:29:38.153Z,2.00
2018-09-28T21:31:41.541Z,2.57
2018-09-28T21:33:44.521Z,2.10
2018-09-28T21:35:47.553Z,1.97
2018-09-28T21:37:52.028Z,1.97
2018-09-28T21:39:54.999Z,2.00
2018-09-28T21:41:58.628Z,1.87
2018-09-28T21:44:01.652Z,1.80
2018-09-28T21:46:04.682Z,2.00
2018-09-28T21:48:07.645Z,1.73
2018-09-28T21:50:10.668Z,2.30
2018-09-28T21:52:13.701Z,4.17
2018-09-28T21:54:16.678Z,2.27
2018-09-28T21:56:19.719Z,2.20
2018-09-28T21:58:24.312Z,3.03
2018-09-28T22:00:27.419Z,2.40
2018-09-28T22:02:30.488Z,1.90
2018-09-28T22:04:33.547Z,2.37
2018-09-28T22:06:36.545Z,2.33
2018-09-28T22:08:39.532Z,2.00
2018-09-28T22:10:42.577Z,2.63
2018-09-28T22:12:45.595Z,3.10
2018-09-28T22:14:48.579Z,1.97
2018-09-28T22:16:52.884Z,2.37
2018-09-28T22:18:55.943Z,2.57
2018-09-28T22:20:58.965Z,2.53
2018-09-28T22:23:01.987Z,2.97
2018-09-28T22:25:05.155Z,2.50
2018-09-28T22:27:09.885Z,2.87
2018-09-28T22:29:13.511Z,2.23
2018-09-28T22:31:16.516Z,2.43
2018-09-28T22:33:19.525Z,2.93
2018-09-28T22:35:23.975Z,2.07
2018-09-28T22:37:26.978Z,2.67
2018-09-28T22:39:29.969Z,2.83
2018-09-28T22:41:33.011Z,2.70
2018-09-28T22:43:36.009Z,2.53
2018-09-28T22:45:39.032Z,2.20
2018-09-28T22:47:42.083Z,2.60
2018-09-28T22:49:45.113Z,2.90
2018-09-28T22:51:48.133Z,2.13
2018-09-28T22:53:53.623Z,2.90
2018-09-28T22:55:57.301Z,2.83
2018-09-28T22:58:00.337Z,2.60
2018-09-28T23:00:03.480Z,2.93
2018-09-28T23:02:06.533Z,2.73
2018-09-28T23:04:10.566Z,2.33
2018-09-28T23:06:13.635Z,2.30
2018-09-28T23:08:16.671Z,3.00
2018-09-28T23:10:19.708Z,2.73
2018-09-28T23:12:24.307Z,3.27
2018-09-28T23:14:27.340Z,3.63
2018-09-28T23:16:30.656Z,3.73
2018-09-28T23:18:33.692Z,2.53
2018-09-28T23:20:36.693Z,3.00
2018-09-28T23:22:39.785Z,3.77
2018-09-28T23:24:42.765Z,2.80
2018-09-28T23:26:45.799Z,2.83
2018-09-28T23:28:48.849Z,3.03
2018-09-28T23:30:53.761Z,2.83
2018-09-28T23:32:56.782Z,3.13
2018-09-28T23:34:59.843Z,3.00
2018-09-28T23:37:03.076Z,2.80
2018-09-28T23:39:08.233Z,3.50
2018-09-28T23:41:11.556Z,2.80
2018-09-28T23:43:14.555Z,2.63
2018-09-28T23:45:17.587Z,3.20
2018-09-28T23:47:22.343Z,3.67
2018-09-28T23:49:25.340Z,2.57
2018-09-28T23:51:28.357Z,2.50
2018-09-28T23:53:31.363Z,3.33
2018-09-28T23:55:34.394Z,3.30
2018-09-28T23:57:37.437Z,3.30
2018-09-28T23:59:40.459Z,2.80
